Time;durP1;ratioP1;P1;durP2;ratioP2;P2;SDS_P1;SDS_P2;PMS_P1;PMS_P2;Temp;Humidity;BMP_temperature;BMP_pressure;BME280_temperature;BME280_humidity;BME280_pressure;Samples;Min_cycle;Max_cycle;Signal;HPM_P1;HPM_P2
2023/12/09 00:00:36;;;;;;;29.95;11.23;;;;;;;;;;8399813;28;20503;-92
2023/12/09 00:04:59;;;;;;;35.78;14.52;;;;;;;;;;8398846;28;20052;-93
2023/12/09 00:09:04;;;;;;;41.10;12.77;;;;;;;;;;8398862;28;20544;-93
2023/12/09 00:13:07;;;;;;;34.80;11.13;;;;;;;;;;8401740;28;20439;-93
2023/12/09 00:17:12;;;;;;;37.70;13.15;;;;;;;;;;8405572;28;20135;-93
2023/12/09 00:21:15;;;;;;;19.30;6.80;;;;;;;;;;8406761;28;20404;-93
2023/12/09 00:25:20;;;;;;;43.08;15.93;;;;;;;;;;8405604;28;20052;-93
2023/12/09 00:29:22;;;;;;;36.75;12.73;;;;;;;;;;8404822;28;20044;-92
2023/12/09 00:33:26;;;;;;;38.03;13.75;;;;;;;;;;8405533;28;20135;-93
2023/12/09 00:37:29;;;;;;;38.92;12.93;;;;;;;;;;8404659;28;20066;-91
2023/12/09 00:41:33;;;;;;;49.50;14.43;;;;;;;;;;8404317;28;20105;-92
2023/12/09 00:45:46;;;;;;;38.63;14.35;;;;;;;;;;8405294;28;20082;-92
2023/12/09 00:49:51;;;;;;;34.00;13.98;;;;;;;;;;8400249;28;20094;-93
2023/12/09 00:53:54;;;;;;;28.25;8.82;;;;;;;;;;8405450;28;20044;-92
2023/12/09 00:57:58;;;;;;;46.75;13.23;;;;;;;;;;8404456;28;20072;-92
2023/12/09 01:02:02;;;;;;;37.30;12.63;;;;;;;;;;8409727;28;20048;-90
2023/12/09 01:06:08;;;;;;;35.92;14.05;;;;;;;;;;8405937;28;20076;-93
2023/12/09 01:10:11;;;;;;;42.53;13.95;;;;;;;;;;8404571;28;20488;-93
2023/12/09 01:14:15;;;;;;;42.03;14.18;;;;;;;;;;8404103;28;20480;-92
2023/12/09 01:18:19;;;;;;;49.53;14.95;;;;;;;;;;8404497;28;20151;-91
2023/12/09 01:22:23;;;;;;;46.50;14.50;;;;;;;;;;8386632;28;20483;-94
2023/12/09 01:26:26;;;;;;;37.88;15.60;;;;;;;;;;8403252;28;20408;-90
2023/12/09 01:30:30;;;;;;;43.50;15.48;;;;;;;;;;8403520;28;20040;-92
2023/12/09 01:34:34;;;;;;;31.92;13.98;;;;;;;;;;8403587;28;20084;-93
2023/12/09 01:38:40;;;;;;;35.03;10.88;;;;;;;;;;8403093;28;20055;-93
2023/12/09 01:42:43;;;;;;;45.65;14.23;;;;;;;;;;8402950;28;20048;-94
2023/12/09 01:46:48;;;;;;;31.95;13.10;;;;;;;;;;8402939;28;20056;-93
2023/12/09 01:50:51;;;;;;;40.90;13.45;;;;;;;;;;8403144;28;20178;-93
2023/12/09 01:54:54;;;;;;;30.23;13.75;;;;;;;;;;8403253;28;20047;-92
2023/12/09 01:58:58;;;;;;;35.22;15.02;;;;;;;;;;8402260;28;20447;-92
2023/12/09 02:03:03;;;;;;;34.97;13.88;;;;;;;;;;8402954;28;20040;-93
2023/12/09 02:07:06;;;;;;;34.33;14.00;;;;;;;;;;8384735;28;20048;-92
2023/12/09 02:11:20;;;;;;;36.28;12.43;;;;;;;;;;8384941;28;20098;-93
2023/12/09 02:15:28;;;;;;;39.47;13.05;;;;;;;;;;8411830;28;20549;-93
2023/12/09 02:19:33;;;;;;;41.03;12.93;;;;;;;;;;8395734;28;20035;-92
2023/12/09 02:23:38;;;;;;;41.05;15.13;;;;;;;;;;8415485;28;20040;-93
2023/12/09 02:27:47;;;;;;;40.13;12.93;;;;;;;;;;8400542;28;20048;-92
2023/12/09 02:31:57;;;;;;;34.25;13.00;;;;;;;;;;8401110;28;20044;-93
2023/12/09 02:36:02;;;;;;;35.10;14.50;;;;;;;;;;8401259;28;20399;-93
2023/12/09 02:40:10;;;;;;;39.80;13.57;;;;;;;;;;8401095;28;20044;-92
2023/12/09 02:44:13;;;;;;;33.45;12.60;;;;;;;;;;8383920;28;20079;-93
2023/12/09 02:48:16;;;;;;;31.42;12.00;;;;;;;;;;8400989;28;20496;-93
2023/12/09 02:52:19;;;;;;;35.97;12.27;;;;;;;;;;8400592;28;20048;-92
2023/12/09 02:56:23;;;;;;;36.03;13.60;;;;;;;;;;8400368;28;20102;-93
2023/12/09 03:00:27;;;;;;;44.17;14.93;;;;;;;;;;8400373;28;20159;-92
2023/12/09 03:04:31;;;;;;;38.53;13.30;;;;;;;;;;8400068;28;20093;-93
2023/12/09 03:08:34;;;;;;;44.22;13.68;;;;;;;;;;8400175;28;20070;-93
2023/12/09 03:12:41;;;;;;;45.25;15.57;;;;;;;;;;8400011;28;20052;-93
2023/12/09 03:16:51;;;;;;;31.95;11.90;;;;;;;;;;8399709;28;20102;-93
2023/12/09 03:20:54;;;;;;;32.60;12.52;;;;;;;;;;8399582;28;20476;-93
2023/12/09 03:24:57;;;;;;;45.72;15.55;;;;;;;;;;8399480;28;20125;-90
2023/12/09 03:29:01;;;;;;;47.35;15.02;;;;;;;;;;8399974;28;20044;-93
2023/12/09 03:33:04;;;;;;;42.38;15.15;;;;;;;;;;8399790;28;20131;-93
2023/12/09 03:37:07;;;;;;;44.40;16.23;;;;;;;;;;8399505;28;20090;-91
2023/12/09 03:41:10;;;;;;;54.92;18.10;;;;;;;;;;8399112;28;20466;-93
2023/12/09 03:45:17;;;;;;;47.55;16.13;;;;;;;;;;8398748;28;20049;-93
2023/12/09 03:49:23;;;;;;;51.45;16.80;;;;;;;;;;8398415;28;20521;-93
2023/12/09 03:53:26;;;;;;;52.45;16.63;;;;;;;;;;8398984;28;20051;-93
2023/12/09 03:57:29;;;;;;;49.15;16.88;;;;;;;;;;8398800;28;20127;-91
2023/12/09 04:01:35;;;;;;;41.47;14.95;;;;;;;;;;8399134;28;20094;-93
2023/12/09 04:05:38;;;;;;;48.72;17.00;;;;;;;;;;8399190;28;20131;-93
2023/12/09 04:09:42;;;;;;;51.92;15.55;;;;;;;;;;8381830;28;20099;-91
2023/12/09 04:13:45;;;;;;;49.60;15.90;;;;;;;;;;8399135;28;20048;-91
2023/12/09 04:17:50;;;;;;;41.55;16.67;;;;;;;;;;8398685;28;20458;-93
2023/12/09 04:21:53;;;;;;;47.90;15.70;;;;;;;;;;8398878;28;20040;-93
2023/12/09 04:25:55;;;;;;;50.42;17.58;;;;;;;;;;8398886;28;20082;-93
2023/12/09 04:30:04;;;;;;;53.72;18.40;;;;;;;;;;8398455;28;20059;-92
2023/12/09 04:34:08;;;;;;;36.38;12.73;;;;;;;;;;8400157;28;20104;-92
2023/12/09 04:38:11;;;;;;;51.78;16.17;;;;;;;;;;8397373;28;20492;-92
2023/12/09 04:42:14;;;;;;;48.97;16.48;;;;;;;;;;8378954;28;20082;-93
2023/12/09 04:46:17;;;;;;;44.22;15.63;;;;;;;;;;8397086;28;20055;-93
2023/12/09 04:50:22;;;;;;;59.63;18.70;;;;;;;;;;8400022;28;20040;-92
2023/12/09 04:54:25;;;;;;;51.15;18.63;;;;;;;;;;8402264;28;20052;-94
2023/12/09 04:58:28;;;;;;;51.60;16.88;;;;;;;;;;8399422;28;20412;-93
2023/12/09 05:02:31;;;;;;;52.38;17.90;;;;;;;;;;8416203;28;20104;-92
2023/12/09 05:06:38;;;;;;;51.50;16.75;;;;;;;;;;8413643;28;20070;-93
2023/12/09 05:10:41;;;;;;;40.38;13.95;;;;;;;;;;8413540;28;20053;-93
2023/12/09 05:14:44;;;;;;;53.78;16.42;;;;;;;;;;8403619;28;20045;-90
2023/12/09 05:18:47;;;;;;;47.92;15.52;;;;;;;;;;8402936;28;20041;-94
2023/12/09 05:22:52;;;;;;;40.13;13.95;;;;;;;;;;8403753;28;20052;-91
2023/12/09 05:26:57;;;;;;;47.83;16.05;;;;;;;;;;8403352;28;20503;-93
2023/12/09 05:31:00;;;;;;;45.53;16.05;;;;;;;;;;8403527;28;20048;-92
2023/12/09 05:35:17;;;;;;;49.88;17.75;;;;;;;;;;8401244;28;20044;-91
2023/12/09 05:39:21;;;;;;;49.72;18.88;;;;;;;;;;8403154;28;20048;-93
2023/12/09 05:43:24;;;;;;;53.75;17.08;;;;;;;;;;8402807;28;20637;-93
2023/12/09 05:47:27;;;;;;;50.42;16.45;;;;;;;;;;8402408;28;20044;-92
2023/12/09 05:51:30;;;;;;;44.65;16.90;;;;;;;;;;8402437;28;20051;-94
2023/12/09 05:55:41;;;;;;;61.13;18.13;;;;;;;;;;8385323;28;20117;-93
2023/12/09 05:59:44;;;;;;;50.95;17.35;;;;;;;;;;8401903;28;20040;-94
2023/12/09 06:03:47;;;;;;;56.22;17.70;;;;;;;;;;8402441;28;20048;-94
2023/12/09 06:07:50;;;;;;;36.42;14.73;;;;;;;;;;8402292;28;20163;-92
2023/12/09 06:11:55;;;;;;;49.55;19.05;;;;;;;;;;8384664;28;20058;-93
2023/12/09 06:16:01;;;;;;;45.13;14.43;;;;;;;;;;8402421;28;20044;-93
2023/12/09 06:20:06;;;;;;;46.67;16.73;;;;;;;;;;8402092;28;20135;-92
2023/12/09 06:24:09;;;;;;;43.03;16.08;;;;;;;;;;8401900;28;20040;-93
2023/12/09 06:28:13;;;;;;;50.22;16.35;;;;;;;;;;8384912;28;20612;-93
2023/12/09 06:32:18;;;;;;;44.97;16.33;;;;;;;;;;8384648;28;20044;-93
2023/12/09 06:36:21;;;;;;;43.15;16.05;;;;;;;;;;8384043;28;20063;-94
2023/12/09 06:40:24;;;;;;;47.58;16.50;;;;;;;;;;8400813;28;20050;-93
2023/12/09 06:44:29;;;;;;;61.25;18.05;;;;;;;;;;8401113;28;20127;-92
2023/12/09 06:48:38;;;;;;;55.88;17.42;;;;;;;;;;8401585;28;20174;-95
2023/12/09 06:52:41;;;;;;;54.20;18.67;;;;;;;;;;8400347;28;20047;-93
2023/12/09 06:56:44;;;;;;;47.25;17.27;;;;;;;;;;8400337;28;20048;-92
2023/12/09 07:01:03;;;;;;;44.13;17.83;;;;;;;;;;8400607;28;20048;-93
2023/12/09 07:05:07;;;;;;;43.60;15.10;;;;;;;;;;8383874;28;20123;-94
2023/12/09 07:09:29;;;;;;;50.08;17.23;;;;;;;;;;8384193;28;20052;-96
2023/12/09 07:13:32;;;;;;;50.37;16.53;;;;;;;;;;8382782;28;20049;-94
2023/12/09 07:17:47;;;;;;;48.50;17.42;;;;;;;;;;8401103;28;20054;-92
2023/12/09 07:21:51;;;;;;;73.95;17.00;;;;;;;;;;8383263;28;20544;-95
2023/12/09 07:26:04;;;;;;;45.20;15.90;;;;;;;;;;8400187;28;20082;-94
2023/12/09 07:30:08;;;;;;;44.38;16.08;;;;;;;;;;8399452;28;20052;-91
2023/12/09 07:34:16;;;;;;;41.88;16.23;;;;;;;;;;8385505;28;20432;-91
2023/12/09 07:38:19;;;;;;;45.58;17.00;;;;;;;;;;8401006;28;20481;-92
2023/12/09 07:42:22;;;;;;;49.03;17.10;;;;;;;;;;8399848;28;20056;-93
2023/12/09 07:46:34;;;;;;;40.55;15.20;;;;;;;;;;8402448;28;20484;-92
2023/12/09 07:50:38;;;;;;;;;;;;;;;;;;8405567;28;20061;-92
2023/12/09 07:54:41;;;;;;;32.90;13.98;;;;;;;;;;8404301;28;19959;-94
2023/12/09 07:58:45;;;;;;;44.67;17.42;;;;;;;;;;8404268;28;20113;-91
2023/12/09 08:02:48;;;;;;;35.80;15.80;;;;;;;;;;8406269;28;20120;-92
2023/12/09 08:07:07;;;;;;;40.28;16.52;;;;;;;;;;8407329;28;20044;-93
2023/12/09 08:11:13;;;;;;;32.58;12.60;;;;;;;;;;8376479;28;20075;-91
2023/12/09 08:15:37;;;;;;;55.75;19.40;;;;;;;;;;8403337;28;20118;-93
2023/12/09 08:19:42;;;;;;;45.13;15.95;;;;;;;;;;8403835;28;20044;-92
2023/12/09 08:24:12;;;;;;;47.75;18.63;;;;;;;;;;8399866;28;20044;-93
2023/12/09 08:28:15;;;;;;;35.22;14.02;;;;;;;;;;8399332;28;20507;-93
2023/12/09 08:32:30;;;;;;;43.90;15.68;;;;;;;;;;8398710;28;20045;-93
2023/12/09 08:36:33;;;;;;;45.97;17.70;;;;;;;;;;8404618;28;20123;-92
2023/12/09 08:40:39;;;;;;;38.38;17.02;;;;;;;;;;8404610;28;20060;-94
2023/12/09 08:44:49;;;;;;;44.53;15.93;;;;;;;;;;8404385;28;20117;-92
2023/12/09 08:48:52;;;;;;;43.65;15.57;;;;;;;;;;8405066;28;20053;-93
2023/12/09 08:53:03;;;;;;;43.15;16.35;;;;;;;;;;8404881;28;20052;-92
2023/12/09 08:57:15;;;;;;;45.10;18.27;;;;;;;;;;8415544;28;20557;-93
2023/12/09 09:01:24;;;;;;;;;;;;;;;;;;8412600;28;20108;-93
2023/12/09 09:05:27;;;;;;;40.85;14.40;;;;;;;;;;8411588;28;19942;-93
2023/12/09 09:09:40;;;;;;;51.65;21.05;;;;;;;;;;8406571;28;20068;-93
2023/12/09 09:13:44;;;;;;;32.80;13.82;;;;;;;;;;8408316;28;20044;-93
2023/12/09 09:17:47;;;;;;;40.28;18.77;;;;;;;;;;8403119;28;20072;-92
2023/12/09 09:21:57;;;;;;;30.95;12.98;;;;;;;;;;8403659;28;20044;-92
2023/12/09 09:26:04;;;;;;;44.47;18.55;;;;;;;;;;8403558;28;20483;-93
2023/12/09 09:30:19;;;;;;;58.95;24.40;;;;;;;;;;8403185;28;20056;-94
2023/12/09 09:34:23;;;;;;;50.25;19.30;;;;;;;;;;8403384;28;20083;-93
2023/12/09 09:38:26;;;;;;;34.95;16.15;;;;;;;;;;8402845;28;20048;-93
2023/12/09 09:42:35;;;;;;;45.22;17.77;;;;;;;;;;8385042;28;20143;-93
2023/12/09 09:46:40;;;;;;;34.35;14.43;;;;;;;;;;8402976;28;20047;-93
2023/12/09 09:50:47;;;;;;;46.15;18.05;;;;;;;;;;8402142;28;20563;-94
2023/12/09 09:55:16;;;;;;;47.93;18.07;;;;;;;;;;8403006;28;20131;-93
2023/12/09 09:59:19;;;;;;;52.78;20.35;;;;;;;;;;8402694;28;20044;-93
2023/12/09 10:03:24;;;;;;;33.05;13.57;;;;;;;;;;8384634;28;20058;-93
2023/12/09 10:07:28;;;;;;;46.92;18.15;;;;;;;;;;8402342;28;20454;-92
2023/12/09 10:11:31;;;;;;;45.55;17.00;;;;;;;;;;8402005;28;20049;-93
2023/12/09 10:15:34;;;;;;;48.20;18.25;;;;;;;;;;8402220;28;20076;-93
2023/12/09 10:19:38;;;;;;;68.53;27.50;;;;;;;;;;8401749;28;20605;-93
2023/12/09 10:23:41;;;;;;;49.70;21.80;;;;;;;;;;8401076;28;20052;-93
2023/12/09 10:27:44;;;;;;;49.60;18.85;;;;;;;;;;8384497;28;20480;-93
2023/12/09 10:31:47;;;;;;;42.22;19.77;;;;;;;;;;8401208;28;20246;-93
2023/12/09 10:35:52;;;;;;;51.85;21.00;;;;;;;;;;8401405;28;20412;-92
2023/12/09 10:39:56;;;;;;;52.30;21.40;;;;;;;;;;8401761;28;20112;-94
2023/12/09 10:44:08;;;;;;;51.67;20.15;;;;;;;;;;8400922;28;20062;-92
2023/12/09 10:48:15;;;;;;;51.33;21.35;;;;;;;;;;8383594;28;20119;-94
2023/12/09 10:57:45;;;;;;;67.93;27.73;;;;;;;;;;8266524;28;20049;-92
2023/12/09 11:01:51;;;;;;;49.17;20.15;;;;;;;;;;8399126;28;20117;-94
2023/12/09 11:05:56;;;;;;;46.92;18.55;;;;;;;;;;8410843;28;20045;-91
2023/12/09 11:10:01;;;;;;;47.17;20.65;;;;;;;;;;8401180;28;20068;-93
2023/12/09 11:14:07;;;;;;;44.75;20.58;;;;;;;;;;8399630;28;20066;-92
2023/12/09 11:18:16;;;;;;;53.28;20.35;;;;;;;;;;8399323;28;20119;-93
2023/12/09 11:27:18;;;;;;;139.18;45.80;;;;;;;;;;8264516;28;20100;-93
2023/12/09 11:31:22;;;;;;;60.78;21.73;;;;;;;;;;8264665;28;20058;-92
2023/12/09 11:35:29;;;;;;;59.70;27.42;;;;;;;;;;8264697;28;20054;-92
2023/12/09 11:39:33;;;;;;;54.80;23.40;;;;;;;;;;8264823;28;20411;-92
2023/12/09 11:43:38;;;;;;;64.72;27.90;;;;;;;;;;8263834;28;20124;-93
2023/12/09 11:47:43;;;;;;;46.70;20.48;;;;;;;;;;8264365;28;20434;-93
2023/12/09 11:51:46;;;;;;;50.85;22.52;;;;;;;;;;8383289;28;20091;-92
2023/12/09 11:55:49;;;;;;;38.88;19.05;;;;;;;;;;8398423;28;20119;-91
2023/12/09 11:59:54;;;;;;;54.83;21.13;;;;;;;;;;8398329;28;20048;-93
2023/12/09 12:03:57;;;;;;;51.78;21.25;;;;;;;;;;8398514;28;20054;-92
2023/12/09 12:08:15;;;;;;;45.33;18.65;;;;;;;;;;8377708;28;20052;-92
2023/12/09 12:12:24;;;;;;;97.18;34.33;;;;;;;;;;8405233;28;20488;-91
2023/12/09 12:16:28;;;;;;;62.28;23.40;;;;;;;;;;8387204;28;20416;-92
2023/12/09 12:20:31;;;;;;;75.93;30.10;;;;;;;;;;8386948;28;20052;-91
2023/12/09 12:24:41;;;;;;;53.85;22.88;;;;;;;;;;8404466;28;20189;-93
2023/12/09 12:28:48;;;;;;;47.20;21.30;;;;;;;;;;8404528;28;20094;-92
2023/12/09 12:32:56;;;;;;;44.35;19.67;;;;;;;;;;8404838;28;20509;-92
2023/12/09 12:37:07;;;;;;;51.42;21.27;;;;;;;;;;8404085;28;20052;-93
2023/12/09 12:41:12;;;;;;;47.72;21.70;;;;;;;;;;8404101;28;20489;-94
2023/12/09 12:45:18;;;;;;;57.28;21.83;;;;;;;;;;8404198;28;20051;-92
2023/12/09 12:49:26;;;;;;;49.60;20.65;;;;;;;;;;8386610;28;20056;-92
2023/12/09 12:53:29;;;;;;;54.30;21.92;;;;;;;;;;8403801;28;20044;-92
2023/12/09 12:57:34;;;;;;;57.28;24.65;;;;;;;;;;8404256;28;20054;-92
2023/12/09 13:01:37;;;;;;;54.60;21.05;;;;;;;;;;8403637;28;20048;-93
2023/12/09 13:05:41;;;;;;;73.38;26.00;;;;;;;;;;8404093;28;20047;-92
2023/12/09 13:09:44;;;;;;;60.65;23.35;;;;;;;;;;8385325;28;20049;-92
2023/12/09 13:13:47;;;;;;;44.63;21.42;;;;;;;;;;8403639;28;20170;-92
2023/12/09 13:17:50;;;;;;;47.92;21.38;;;;;;;;;;8403154;28;20557;-91
2023/12/09 13:21:55;;;;;;;45.95;20.48;;;;;;;;;;8402593;28;20049;-92
2023/12/09 13:26:02;;;;;;;47.08;19.63;;;;;;;;;;8403130;28;20055;-92
2023/12/09 13:30:23;;;;;;;54.20;20.05;;;;;;;;;;8381351;28;20053;-92
2023/12/09 13:34:35;;;;;;;51.50;19.85;;;;;;;;;;8402970;28;20151;-93
2023/12/09 13:38:40;;;;;;;42.75;19.85;;;;;;;;;;8403094;28;20066;-91
2023/12/09 13:42:46;;;;;;;42.85;18.85;;;;;;;;;;8402254;28;20049;-92
2023/12/09 13:46:55;;;;;;;40.50;20.00;;;;;;;;;;8383514;28;20060;-93
2023/12/09 13:51:08;;;;;;;59.90;27.70;;;;;;;;;;8400755;28;20044;-91
2023/12/09 13:55:14;;;;;;;100.60;29.23;;;;;;;;;;8401753;28;20399;-93
2023/12/09 13:59:17;;;;;;;69.20;27.55;;;;;;;;;;8385011;28;20052;-92
2023/12/09 14:03:20;;;;;;;64.45;29.95;;;;;;;;;;8401125;28;20156;-92
2023/12/09 14:07:23;;;;;;;53.28;22.77;;;;;;;;;;8401669;28;20048;-92
2023/12/09 14:11:31;;;;;;;150.93;45.85;;;;;;;;;;8401080;28;20051;-91
2023/12/09 14:15:34;;;;;;;147.00;47.28;;;;;;;;;;8383844;28;20051;-92
2023/12/09 14:19:38;;;;;;;122.82;39.13;;;;;;;;;;8400942;28;20044;-90
2023/12/09 14:23:43;;;;;;;57.08;26.17;;;;;;;;;;8400866;28;20499;-92
2023/12/09 14:27:58;;;;;;;;;;;;;;;;;;;;;
2023/12/09 14:32:17;;;;;;;56.83;23.63;;;;;;;;;;8399831;28;20045;-91
2023/12/09 14:36:22;;;;;;;60.13;24.20;;;;;;;;;;8400359;28;20052;-92
2023/12/09 14:40:31;;;;;;;49.35;22.48;;;;;;;;;;8382830;28;20055;-93
2023/12/09 14:44:49;;;;;;;47.17;19.65;;;;;;;;;;8400738;28;20052;-92
2023/12/09 14:48:55;;;;;;;55.75;25.10;;;;;;;;;;8400160;28;20040;-92
2023/12/09 14:52:59;;;;;;;62.15;30.52;;;;;;;;;;8400008;28;20072;-92
2023/12/09 15:01:42;;;;;;;101.10;39.53;;;;;;;;;;8395527;28;20049;-92
2023/12/09 15:05:46;;;;;;;77.80;34.78;;;;;;;;;;8400054;28;20044;-90
2023/12/09 15:09:50;;;;;;;70.07;29.73;;;;;;;;;;8399599;28;20044;-92
2023/12/09 15:13:54;;;;;;;66.53;29.23;;;;;;;;;;8382465;28;20057;-93
2023/12/09 15:18:00;;;;;;;49.13;22.33;;;;;;;;;;8399443;28;20123;-93
2023/12/09 15:22:09;;;;;;;55.20;27.05;;;;;;;;;;8399048;28;20186;-91
2023/12/09 15:26:13;;;;;;;72.35;31.90;;;;;;;;;;8399528;28;20048;-93
2023/12/09 15:30:18;;;;;;;63.20;27.23;;;;;;;;;;8398813;28;20049;-91
2023/12/09 15:34:23;;;;;;;95.63;38.92;;;;;;;;;;8380751;28;20040;-93
2023/12/09 15:38:30;;;;;;;86.88;40.13;;;;;;;;;;8381643;28;20162;-90
2023/12/09 15:42:38;;;;;;;89.18;38.92;;;;;;;;;;8375281;28;20202;-93
2023/12/09 15:46:41;;;;;;;75.85;32.13;;;;;;;;;;8365590;28;20044;-91
2023/12/09 15:50:46;;;;;;;80.38;35.88;;;;;;;;;;8365705;28;20049;-92
2023/12/09 15:54:49;;;;;;;100.72;39.20;;;;;;;;;;8365405;28;20044;-92
2023/12/09 15:58:53;;;;;;;81.25;36.17;;;;;;;;;;8365698;28;20123;-93
2023/12/09 16:02:59;;;;;;;71.65;30.05;;;;;;;;;;8365797;28;20595;-92
2023/12/09 16:07:04;;;;;;;38.60;17.08;;;;;;;;;;8365544;28;20570;-93
2023/12/09 16:11:15;;;;;;;53.20;22.08;;;;;;;;;;8365705;28;20136;-93
2023/12/09 16:15:18;;;;;;;53.75;23.42;;;;;;;;;;8390992;28;20131;-91
2023/12/09 16:19:23;;;;;;;48.92;22.10;;;;;;;;;;8381403;28;20056;-94
2023/12/09 16:23:34;;;;;;;56.23;24.47;;;;;;;;;;8399012;28;20049;-92
2023/12/09 16:27:38;;;;;;;68.50;29.88;;;;;;;;;;8398831;28;20294;-91
2023/12/09 16:31:41;;;;;;;47.35;21.50;;;;;;;;;;8399176;28;20044;-91
2023/12/09 16:35:47;;;;;;;50.50;22.85;;;;;;;;;;8397466;28;20119;-93
2023/12/09 16:39:52;;;;;;;48.75;20.83;;;;;;;;;;8382347;28;20381;-93
2023/12/09 16:43:55;;;;;;;39.03;17.85;;;;;;;;;;8363999;28;20060;-91
2023/12/09 16:47:58;;;;;;;59.35;26.20;;;;;;;;;;8347412;28;20048;-92
2023/12/09 16:52:04;;;;;;;56.67;26.05;;;;;;;;;;8347484;28;20404;-93
2023/12/09 16:56:10;;;;;;;63.35;26.38;;;;;;;;;;8351329;28;20048;-92
2023/12/09 17:00:16;;;;;;;52.28;23.92;;;;;;;;;;8370980;28;20045;-94
2023/12/09 17:04:23;;;;;;;67.60;25.85;;;;;;;;;;8371467;28;20117;-91
2023/12/09 17:08:28;;;;;;;54.75;25.60;;;;;;;;;;8371103;28;20045;-90
2023/12/09 17:12:39;;;;;;;64.90;29.92;;;;;;;;;;8353123;28;20049;-93
2023/12/09 17:16:43;;;;;;;59.30;24.17;;;;;;;;;;8370509;28;20083;-92
2023/12/09 17:20:47;;;;;;;57.13;23.80;;;;;;;;;;8370319;28;20053;-93
2023/12/09 17:24:57;;;;;;;50.05;21.80;;;;;;;;;;8369818;28;20128;-94
2023/12/09 17:29:04;;;;;;;63.93;27.07;;;;;;;;;;8352714;28;20041;-92
2023/12/09 17:33:10;;;;;;;59.22;25.90;;;;;;;;;;8369926;28;20045;-92
2023/12/09 17:37:13;;;;;;;70.03;35.90;;;;;;;;;;8369954;28;20129;-92
2023/12/09 17:41:16;;;;;;;76.13;29.10;;;;;;;;;;8370071;28;20053;-91
2023/12/09 17:45:29;;;;;;;;;;;;;;;;;;8351740;28;20064;-92
2023/12/09 17:49:34;;;;;;;71.30;30.50;;;;;;;;;;8370131;28;20016;-94
2023/12/09 17:53:38;;;;;;;67.28;29.55;;;;;;;;;;8369749;28;20128;-91
2023/12/09 17:57:41;;;;;;;66.03;28.52;;;;;;;;;;8369223;28;20480;-94
2023/12/09 18:01:48;;;;;;;69.57;30.70;;;;;;;;;;8369108;28;20053;-90
2023/12/09 18:06:00;;;;;;;72.05;29.60;;;;;;;;;;8368612;28;20055;-93
2023/12/09 18:10:03;;;;;;;65.72;29.55;;;;;;;;;;8368922;28;20508;-93
2023/12/09 18:14:06;;;;;;;70.35;32.42;;;;;;;;;;8351782;28;20056;-94
2023/12/09 18:18:20;;;;;;;70.13;33.53;;;;;;;;;;8368408;28;20498;-93
2023/12/09 18:22:23;;;;;;;73.93;31.58;;;;;;;;;;8351205;28;20045;-93
2023/12/09 18:26:26;;;;;;;65.32;27.02;;;;;;;;;;8368495;28;20124;-90
2023/12/09 18:30:47;;;;;;;50.95;22.63;;;;;;;;;;8367231;28;20403;-92
2023/12/09 18:34:54;;;;;;;69.25;34.22;;;;;;;;;;8367778;28;20480;-93
2023/12/09 18:39:02;;;;;;;83.38;37.97;;;;;;;;;;8368078;28;20044;-93
2023/12/09 18:47:29;;;;;;;64.70;27.77;;;;;;;;;;8368177;28;20047;-92
2023/12/09 18:51:34;;;;;;;52.33;25.92;;;;;;;;;;8367691;28;20048;-93
2023/12/09 18:55:37;;;;;;;62.35;27.42;;;;;;;;;;8367917;28;20110;-94
2023/12/09 19:00:01;;;;;;;63.92;27.13;;;;;;;;;;8368162;28;20048;-92
2023/12/09 19:04:21;;;;;;;77.35;32.08;;;;;;;;;;8367245;28;20386;-94
2023/12/09 19:08:26;;;;;;;74.68;31.20;;;;;;;;;;8367914;28;20057;-92
2023/12/09 19:12:50;;;;;;;77.88;33.85;;;;;;;;;;8367095;28;20065;-91
2023/12/09 19:16:58;;;;;;;60.15;24.10;;;;;;;;;;8349935;28;20056;-94
2023/12/09 19:21:22;;;;;;;72.20;31.48;;;;;;;;;;8365404;28;20051;-94
2023/12/09 19:25:31;;;;;;;55.78;24.10;;;;;;;;;;8364941;28;20048;-91
2023/12/09 19:30:03;;;;;;;65.68;23.15;;;;;;;;;;8396944;22;20095;-92
2023/12/09 19:34:14;;;;;;;52.78;22.10;;;;;;;;;;8399138;28;20041;-93
2023/12/09 19:38:31;;;;;;;56.50;21.27;;;;;;;;;;8399291;28;20044;-94
2023/12/09 19:42:39;;;;;;;55.40;23.45;;;;;;;;;;8381595;28;20049;-92
2023/12/09 19:46:43;;;;;;;59.83;27.23;;;;;;;;;;8404697;22;20461;-94
2023/12/09 19:50:47;;;;;;;54.55;22.58;;;;;;;;;;8380286;28;20070;-93
2023/12/09 19:55:05;;;;;;;36.25;15.77;;;;;;;;;;8394606;28;20049;-93
2023/12/09 19:59:10;;;;;;;50.65;22.73;;;;;;;;;;8374777;28;20045;-90
2023/12/09 20:03:13;;;;;;;72.97;26.13;;;;;;;;;;8365160;28;20124;-93
2023/12/09 20:07:17;;;;;;;50.60;21.45;;;;;;;;;;8365130;28;20049;-92
2023/12/09 20:11:38;;;;;;;43.60;21.50;;;;;;;;;;8365358;28;20056;-93
2023/12/09 20:15:54;;;;;;;51.80;22.35;;;;;;;;;;8365690;28;20045;-90
2023/12/09 20:19:57;;;;;;;42.30;18.50;;;;;;;;;;8365296;28;20041;-93
2023/12/09 20:24:00;;;;;;;49.78;22.13;;;;;;;;;;8365139;28;20048;-93
2023/12/09 20:28:06;;;;;;;50.97;23.02;;;;;;;;;;8365411;28;20040;-94
2023/12/09 20:32:11;;;;;;;49.22;20.90;;;;;;;;;;8371397;28;20040;-92
2023/12/09 20:36:14;;;;;;;53.55;21.63;;;;;;;;;;8354857;28;20431;-92
2023/12/09 20:40:23;;;;;;;50.33;18.90;;;;;;;;;;8353904;28;20093;-94
2023/12/09 20:44:27;;;;;;;42.85;19.13;;;;;;;;;;8371394;28;20108;-94
2023/12/09 20:48:33;;;;;;;54.60;23.25;;;;;;;;;;8371133;28;20052;-94
2023/12/09 20:57:06;;;;;;;63.35;25.67;;;;;;;;;;8370710;28;20468;-94
2023/12/09 21:01:09;;;;;;;63.78;23.27;;;;;;;;;;8371168;28;20041;-93
2023/12/09 21:05:14;;;;;;;72.68;27.80;;;;;;;;;;8371091;28;20045;-93
2023/12/09 21:09:17;;;;;;;52.00;24.40;;;;;;;;;;8371104;28;20503;-91
2023/12/09 21:13:20;;;;;;;50.58;18.83;;;;;;;;;;8370834;28;20123;-93
2023/12/09 21:17:23;;;;;;;52.35;21.73;;;;;;;;;;8369373;28;20048;-92
2023/12/09 21:21:31;;;;;;;48.67;22.33;;;;;;;;;;8353799;28;20056;-93
2023/12/09 21:25:37;;;;;;;59.17;21.67;;;;;;;;;;8370297;28;20041;-93
2023/12/09 21:29:40;;;;;;;53.47;22.70;;;;;;;;;;8370003;28;20052;-91
2023/12/09 21:33:52;;;;;;;47.50;21.13;;;;;;;;;;8370109;28;20132;-94
2023/12/09 21:38:16;;;;;;;59.53;23.50;;;;;;;;;;8370361;28;20071;-92
2023/12/09 21:42:30;;;;;;;51.33;21.55;;;;;;;;;;8369750;28;20167;-93
2023/12/09 21:46:37;;;;;;;55.38;22.58;;;;;;;;;;8352722;28;20045;-90
2023/12/09 21:50:42;;;;;;;54.75;23.10;;;;;;;;;;8369616;28;20045;-91
2023/12/09 21:54:48;;;;;;;57.22;24.90;;;;;;;;;;8368777;28;20052;-91
2023/12/09 21:58:52;;;;;;;56.75;22.48;;;;;;;;;;8368354;28;20140;-90
2023/12/09 22:02:55;;;;;;;65.35;26.52;;;;;;;;;;8369076;28;20082;-92
2023/12/09 22:06:59;;;;;;;67.95;27.15;;;;;;;;;;8351232;28;20091;-94
2023/12/09 22:11:25;;;;;;;54.70;23.95;;;;;;;;;;8368617;28;20169;-92
2023/12/09 22:15:28;;;;;;;51.92;25.13;;;;;;;;;;8367605;28;20174;-91
2023/12/09 22:19:36;;;;;;;61.20;26.42;;;;;;;;;;8351354;28;20053;-93
2023/12/09 22:23:45;;;;;;;59.13;24.58;;;;;;;;;;8368138;28;20059;-92
2023/12/09 22:27:51;;;;;;;47.67;22.30;;;;;;;;;;8351205;28;20052;-93
2023/12/09 22:31:55;;;;;;;55.90;20.95;;;;;;;;;;8368147;28;20048;-93
2023/12/09 22:35:58;;;;;;;59.65;25.45;;;;;;;;;;8350401;28;20072;-91
2023/12/09 22:40:02;;;;;;;66.60;27.33;;;;;;;;;;8367784;28;20116;-91
2023/12/09 22:44:06;;;;;;;63.50;25.90;;;;;;;;;;8367210;28;20056;-93
2023/12/09 22:48:10;;;;;;;63.10;26.42;;;;;;;;;;8367594;28;20057;-93
2023/12/09 22:52:12;;;;;;;48.38;20.05;;;;;;;;;;8366758;28;20124;-92
2023/12/09 22:56:22;;;;;;;54.78;24.92;;;;;;;;;;8367225;28;20073;-93
2023/12/09 23:05:10;;;;;;;62.95;26.38;;;;;;;;;;8365829;28;20106;-91
2023/12/09 23:09:14;;;;;;;53.70;25.02;;;;;;;;;;8349595;28;20174;-91
2023/12/09 23:13:19;;;;;;;54.25;22.55;;;;;;;;;;8350156;28;20069;-92
2023/12/09 23:17:25;;;;;;;59.05;26.70;;;;;;;;;;8349357;28;20424;-90
2023/12/09 23:21:28;;;;;;;65.63;25.50;;;;;;;;;;8366609;28;20128;-95
2023/12/09 23:25:34;;;;;;;56.85;25.92;;;;;;;;;;8366165;28;20497;-93
2023/12/09 23:30:05;;;;;;;59.20;24.30;;;;;;;;;;8366311;28;20132;-92
2023/12/09 23:34:10;;;;;;;55.00;22.88;;;;;;;;;;8366996;28;20543;-91
2023/12/09 23:38:13;;;;;;;59.25;24.70;;;;;;;;;;8366320;28;20049;-92
2023/12/09 23:42:16;;;;;;;57.90;24.83;;;;;;;;;;8365953;28;20171;-91
2023/12/09 23:46:21;;;;;;;48.53;22.00;;;;;;;;;;8366244;28;20048;-94
2023/12/09 23:50:25;;;;;;;50.67;22.05;;;;;;;;;;8365714;28;20041;-94
2023/12/09 23:58:45;;;;;;;55.45;22.92;;;;;;;;;;8362128;28;20056;-92
